Time;durP1;ratioP1;P1;durP2;ratioP2;P2;SDS_P1;SDS_P2;PMS_P1;PMS_P2;Temp;Humidity;BMP_temperature;BMP_pressure;BME280_temperature;BME280_humidity;BME280_pressure;Samples;Min_cycle;Max_cycle;Signal;HPM_P1;HPM_P2
2024/01/23 00:02:32;;;;;;;1.48;0.35;;;;;;;;;;4979660;28;20047;-79
2024/01/23 00:05:04;;;;;;;0.60;0.30;;;;;;;;;;4975843;28;20497;-78
2024/01/23 00:07:37;;;;;;;1.25;0.22;;;;;;;;;;4974848;28;20065;-80
2024/01/23 00:10:11;;;;;;;0.50;0.20;;;;;;;;;;4974791;28;20047;-77
2024/01/23 00:12:43;;;;;;;0.60;0.30;;;;;;;;;;4975555;28;20051;-79
2024/01/23 00:15:14;;;;;;;1.83;0.30;;;;;;;;;;4948106;29;20058;-80
2024/01/23 00:17:44;;;;;;;1.25;0.40;;;;;;;;;;4952707;28;20055;-80
2024/01/23 00:20:17;;;;;;;2.83;0.20;;;;;;;;;;4940844;28;20057;-79
2024/01/23 00:22:47;;;;;;;0.60;0.35;;;;;;;;;;4973367;28;20055;-80
2024/01/23 00:25:19;;;;;;;0.63;0.20;;;;;;;;;;4955418;28;20053;-79
2024/01/23 00:27:49;;;;;;;2.00;0.30;;;;;;;;;;4973694;28;20070;-81
2024/01/23 00:30:30;;;;;;;0.57;0.28;;;;;;;;;;4943581;28;20169;-79
2024/01/23 00:33:02;;;;;;;1.38;0.30;;;;;;;;;;4966954;28;20062;-79
2024/01/23 00:35:33;;;;;;;0.47;0.40;;;;;;;;;;4967586;28;20053;-79
2024/01/23 00:38:03;;;;;;;0.55;0.25;;;;;;;;;;4963513;28;20414;-78
2024/01/23 00:40:34;;;;;;;1.17;0.40;;;;;;;;;;4964780;28;20042;-79
2024/01/23 00:43:04;;;;;;;2.47;0.57;;;;;;;;;;4951659;29;20058;-79
2024/01/23 00:45:35;;;;;;;3.05;0.40;;;;;;;;;;4949996;28;20043;-79
2024/01/23 00:48:05;;;;;;;0.80;0.20;;;;;;;;;;4964065;28;20050;-80
2024/01/23 00:50:36;;;;;;;1.83;0.40;;;;;;;;;;4958987;28;20070;-79
2024/01/23 00:53:06;;;;;;;0.70;0.40;;;;;;;;;;4966287;28;20709;-80
2024/01/23 00:55:36;;;;;;;0.40;0.22;;;;;;;;;;4946197;29;20054;-80
2024/01/23 00:58:06;;;;;;;0.82;0.30;;;;;;;;;;4961074;28;20043;-79
2024/01/23 01:00:39;;;;;;;0.68;0.22;;;;;;;;;;4965079;28;20059;-80
2024/01/23 01:03:11;;;;;;;2.70;0.30;;;;;;;;;;4966009;28;20406;-80
2024/01/23 01:05:43;;;;;;;1.10;0.22;;;;;;;;;;4965005;28;20540;-80
2024/01/23 01:08:13;;;;;;;0.90;0.30;;;;;;;;;;4948450;28;20494;-78
2024/01/23 01:10:45;;;;;;;0.77;0.30;;;;;;;;;;4964610;28;20050;-78
2024/01/23 01:13:16;;;;;;;3.38;0.25;;;;;;;;;;4962411;28;20069;-80
2024/01/23 01:15:46;;;;;;;0.75;0.20;;;;;;;;;;4964499;28;20058;-78
2024/01/23 01:18:17;;;;;;;1.52;0.30;;;;;;;;;;4962625;28;20415;-80
2024/01/23 01:20:49;;;;;;;0.90;0.50;;;;;;;;;;4964156;28;20070;-80
2024/01/23 01:23:20;;;;;;;0.80;0.40;;;;;;;;;;4966393;28;20039;-80
2024/01/23 01:25:51;;;;;;;0.70;0.52;;;;;;;;;;4964707;28;20058;-79
2024/01/23 01:28:21;;;;;;;0.68;0.30;;;;;;;;;;4966356;28;20050;-79
2024/01/23 01:30:52;;;;;;;2.55;0.38;;;;;;;;;;4950016;28;20078;-80
2024/01/23 01:33:22;;;;;;;1.30;0.60;;;;;;;;;;4971198;28;20043;-81
2024/01/23 01:35:54;;;;;;;3.33;0.50;;;;;;;;;;4974536;28;20043;-79
2024/01/23 01:38:25;;;;;;;1.38;0.60;;;;;;;;;;4972611;28;20405;-78
2024/01/23 01:40:58;;;;;;;1.67;0.38;;;;;;;;;;4974400;28;20401;-79
2024/01/23 01:43:31;;;;;;;3.22;0.55;;;;;;;;;;4975509;28;20055;-80
2024/01/23 01:46:24;;;;;;;1.88;0.70;;;;;;;;;;4975171;28;20039;-79
2024/01/23 01:48:56;;;;;;;3.65;0.60;;;;;;;;;;4975206;28;20074;-80
2024/01/23 01:51:28;;;;;;;;;;;;;;;;;;4975246;28;20051;-79
2024/01/23 01:54:00;;;;;;;1.25;0.55;;;;;;;;;;4974153;28;19922;-78
2024/01/23 01:56:31;;;;;;;2.05;0.40;;;;;;;;;;4975262;28;20054;-79
2024/01/23 01:59:02;;;;;;;1.73;0.40;;;;;;;;;;4974421;28;20053;-80
2024/01/23 02:01:33;;;;;;;1.23;0.30;;;;;;;;;;4974967;28;20478;-79
2024/01/23 02:04:04;;;;;;;2.97;0.32;;;;;;;;;;4975125;28;20051;-79
2024/01/23 02:06:35;;;;;;;2.15;0.63;;;;;;;;;;4975448;28;20050;-80
2024/01/23 02:09:07;;;;;;;1.05;0.40;;;;;;;;;;4973721;28;20410;-79
2024/01/23 02:11:53;;;;;;;3.45;0.55;;;;;;;;;;4975252;28;20505;-80
2024/01/23 02:14:27;;;;;;;5.00;0.40;;;;;;;;;;4973328;28;20055;-79
2024/01/23 02:16:57;;;;;;;0.55;0.30;;;;;;;;;;4973074;28;20466;-81
2024/01/23 02:19:29;;;;;;;3.97;0.47;;;;;;;;;;4973366;28;20050;-79
2024/01/23 02:21:59;;;;;;;2.25;0.38;;;;;;;;;;4958228;28;20517;-79
2024/01/23 02:24:29;;;;;;;1.67;0.40;;;;;;;;;;4974605;28;20051;-80
2024/01/23 02:27:01;;;;;;;2.55;0.30;;;;;;;;;;4958372;28;20497;-81
2024/01/23 02:29:37;;;;;;;5.53;0.50;;;;;;;;;;4974921;28;20062;-80
2024/01/23 02:32:08;;;;;;;3.63;0.50;;;;;;;;;;4974495;28;20054;-81
2024/01/23 02:34:37;;;;;;;3.35;0.38;;;;;;;;;;4957567;28;20051;-80
2024/01/23 02:37:07;;;;;;;1.13;0.43;;;;;;;;;;4973897;28;20050;-79
2024/01/23 02:39:38;;;;;;;2.08;0.40;;;;;;;;;;4974190;28;20039;-80
2024/01/23 02:42:09;;;;;;;3.70;0.40;;;;;;;;;;4975419;28;20478;-80
2024/01/23 02:44:45;;;;;;;3.50;0.50;;;;;;;;;;4957785;28;20073;-79
2024/01/23 02:47:15;;;;;;;1.05;0.35;;;;;;;;;;4974672;28;20378;-80
2024/01/23 02:49:48;;;;;;;4.20;0.45;;;;;;;;;;4974277;28;20043;-80
2024/01/23 02:52:18;;;;;;;;;;;;;;;;;;4975002;28;20054;-80
2024/01/23 02:54:48;;;;;;;1.50;0.20;;;;;;;;;;4974124;28;19929;-80
2024/01/23 02:57:18;;;;;;;1.17;0.57;;;;;;;;;;4974309;28;20046;-79
2024/01/23 02:59:48;;;;;;;1.15;0.40;;;;;;;;;;4974226;28;20065;-80
2024/01/23 03:02:19;;;;;;;3.47;0.40;;;;;;;;;;4974250;28;20054;-80
2024/01/23 03:04:50;;;;;;;3.17;0.30;;;;;;;;;;4974205;28;20049;-80
2024/01/23 03:07:21;;;;;;;2.55;0.43;;;;;;;;;;4974551;28;20043;-79
2024/01/23 03:09:52;;;;;;;1.85;0.35;;;;;;;;;;4975052;28;20057;-78
2024/01/23 03:12:23;;;;;;;4.97;0.52;;;;;;;;;;4978082;28;20107;-79
2024/01/23 03:14:54;;;;;;;0.85;0.30;;;;;;;;;;4960757;28;20047;-77
2024/01/23 03:17:25;;;;;;;2.35;0.60;;;;;;;;;;4978273;28;20508;-79
2024/01/23 03:19:55;;;;;;;1.63;0.47;;;;;;;;;;4978325;28;20055;-78
2024/01/23 03:22:26;;;;;;;3.33;0.50;;;;;;;;;;4977811;28;20494;-79
2024/01/23 03:24:56;;;;;;;2.55;0.47;;;;;;;;;;4977785;28;20406;-78
2024/01/23 03:27:27;;;;;;;3.35;0.35;;;;;;;;;;4977959;28;20042;-79
2024/01/23 03:29:57;;;;;;;2.90;0.43;;;;;;;;;;4960776;28;20516;-80
2024/01/23 03:32:27;;;;;;;8.95;0.70;;;;;;;;;;4977709;28;20039;-79
2024/01/23 03:34:58;;;;;;;2.92;0.47;;;;;;;;;;4960496;28;20051;-80
2024/01/23 03:37:28;;;;;;;3.38;0.60;;;;;;;;;;4960245;28;20047;-79
2024/01/23 03:39:58;;;;;;;2.40;0.43;;;;;;;;;;4978009;28;20050;-79
2024/01/23 03:42:27;;;;;;;5.80;0.63;;;;;;;;;;4977345;28;20051;-79
2024/01/23 03:44:58;;;;;;;1.10;0.45;;;;;;;;;;4977543;28;20058;-79
2024/01/23 03:47:29;;;;;;;3.28;0.47;;;;;;;;;;4977632;28;20050;-79
2024/01/23 03:50:02;;;;;;;2.08;0.55;;;;;;;;;;4977131;28;20050;-79
2024/01/23 03:52:32;;;;;;;1.77;0.55;;;;;;;;;;4977558;28;20043;-79
2024/01/23 03:55:01;;;;;;;2.10;0.50;;;;;;;;;;4977346;28;20119;-80
2024/01/23 03:57:31;;;;;;;4.13;0.50;;;;;;;;;;4959441;28;20042;-80
2024/01/23 04:00:03;;;;;;;2.50;0.52;;;;;;;;;;4959990;28;20494;-80
2024/01/23 04:02:40;;;;;;;4.25;0.50;;;;;;;;;;4962228;28;20082;-79
2024/01/23 04:05:10;;;;;;;7.30;0.70;;;;;;;;;;4977465;28;20057;-79
2024/01/23 04:07:40;;;;;;;7.03;0.60;;;;;;;;;;4977098;28;20055;-79
2024/01/23 04:10:11;;;;;;;7.25;0.85;;;;;;;;;;4977366;28;20056;-79
2024/01/23 04:12:42;;;;;;;4.13;0.40;;;;;;;;;;4967579;28;20051;-79
2024/01/23 04:15:12;;;;;;;2.58;0.50;;;;;;;;;;4972251;28;20051;-79
2024/01/23 04:17:42;;;;;;;7.80;1.00;;;;;;;;;;4990292;28;20049;-78
2024/01/23 04:20:13;;;;;;;17.75;2.45;;;;;;;;;;4990042;28;20053;-80
2024/01/23 04:22:44;;;;;;;2.78;0.40;;;;;;;;;;4970338;28;20041;-79
2024/01/23 04:25:14;;;;;;;1.95;0.70;;;;;;;;;;4960120;28;20046;-80
2024/01/23 04:27:44;;;;;;;1.55;0.40;;;;;;;;;;4959286;28;20061;-79
2024/01/23 04:30:15;;;;;;;2.65;0.30;;;;;;;;;;4977143;28;20533;-79
2024/01/23 04:32:45;;;;;;;2.38;0.60;;;;;;;;;;4958699;28;20505;-79
2024/01/23 04:35:16;;;;;;;2.95;0.50;;;;;;;;;;4959990;28;20053;-80
2024/01/23 04:37:47;;;;;;;4.30;0.45;;;;;;;;;;4959301;28;20051;-79
2024/01/23 04:40:17;;;;;;;5.50;0.43;;;;;;;;;;4976454;28;20047;-80
2024/01/23 04:42:48;;;;;;;4.07;0.40;;;;;;;;;;4976728;28;20054;-79
2024/01/23 04:45:18;;;;;;;6.75;0.68;;;;;;;;;;4959530;28;20043;-79
2024/01/23 04:47:48;;;;;;;2.28;0.80;;;;;;;;;;4976376;28;20058;-81
2024/01/23 04:50:18;;;;;;;3.13;0.40;;;;;;;;;;4958678;28;20051;-80
2024/01/23 04:52:48;;;;;;;5.85;0.60;;;;;;;;;;4976208;28;20050;-80
2024/01/23 04:55:18;;;;;;;2.60;0.30;;;;;;;;;;4964805;28;20065;-79
2024/01/23 04:57:49;;;;;;;3.70;0.65;;;;;;;;;;4984812;28;20046;-79
2024/01/23 05:00:19;;;;;;;1.58;0.50;;;;;;;;;;4966327;28;20498;-79
2024/01/23 05:02:50;;;;;;;2.33;0.57;;;;;;;;;;4978793;28;20043;-79
2024/01/23 05:05:21;;;;;;;5.57;0.60;;;;;;;;;;4975665;28;20047;-79
2024/01/23 05:07:51;;;;;;;2.85;0.60;;;;;;;;;;4975920;28;20062;-80
2024/01/23 05:10:21;;;;;;;4.75;0.63;;;;;;;;;;4958868;28;20076;-79
2024/01/23 05:12:51;;;;;;;7.60;0.73;;;;;;;;;;4975653;28;20486;-79
2024/01/23 05:15:21;;;;;;;5.95;0.50;;;;;;;;;;4976170;28;20051;-79
2024/01/23 05:17:51;;;;;;;2.35;0.60;;;;;;;;;;4958535;28;20050;-80
2024/01/23 05:20:22;;;;;;;1.05;0.40;;;;;;;;;;4975262;28;20414;-79
2024/01/23 05:22:52;;;;;;;1.15;0.60;;;;;;;;;;4975598;28;20054;-81
2024/01/23 05:25:24;;;;;;;1.33;0.38;;;;;;;;;;4958566;28;20058;-79
2024/01/23 05:27:56;;;;;;;1.35;0.40;;;;;;;;;;4975870;28;20045;-79
2024/01/23 05:30:26;;;;;;;3.80;0.60;;;;;;;;;;4975806;28;20473;-79
2024/01/23 05:32:56;;;;;;;5.70;0.52;;;;;;;;;;4974677;28;20054;-79
2024/01/23 05:35:26;;;;;;;2.47;0.50;;;;;;;;;;4958909;28;20070;-81
2024/01/23 05:37:56;;;;;;;2.47;0.40;;;;;;;;;;4975465;28;20488;-80
2024/01/23 05:40:26;;;;;;;4.47;0.55;;;;;;;;;;4975527;28;20059;-79
2024/01/23 05:42:57;;;;;;;1.48;0.40;;;;;;;;;;4975172;28;20050;-80
2024/01/23 05:45:27;;;;;;;2.45;0.40;;;;;;;;;;4958945;28;20062;-79
2024/01/23 05:47:57;;;;;;;5.18;0.70;;;;;;;;;;4975733;28;20450;-79
2024/01/23 05:50:27;;;;;;;3.72;0.45;;;;;;;;;;4975299;28;20415;-79
2024/01/23 05:52:57;;;;;;;2.33;0.90;;;;;;;;;;4975111;28;20059;-79
2024/01/23 05:55:27;;;;;;;1.90;0.60;;;;;;;;;;4975341;28;20055;-79
2024/01/23 05:57:58;;;;;;;3.00;0.50;;;;;;;;;;4974676;28;20084;-79
2024/01/23 06:00:28;;;;;;;0.60;0.40;;;;;;;;;;4957761;28;20504;-79
2024/01/23 06:02:58;;;;;;;0.75;0.40;;;;;;;;;;4974744;28;20046;-80
2024/01/23 06:05:28;;;;;;;2.97;0.70;;;;;;;;;;4956388;28;20050;-79
2024/01/23 06:07:58;;;;;;;3.70;0.80;;;;;;;;;;4975046;28;20429;-80
2024/01/23 06:10:28;;;;;;;2.92;0.50;;;;;;;;;;4956728;28;20066;-79
2024/01/23 06:12:58;;;;;;;3.20;0.47;;;;;;;;;;4974571;28;20070;-79
2024/01/23 06:15:29;;;;;;;1.60;0.50;;;;;;;;;;4974805;28;20046;-79
2024/01/23 06:17:59;;;;;;;2.78;0.50;;;;;;;;;;4974651;28;20043;-79
2024/01/23 06:20:29;;;;;;;4.72;0.40;;;;;;;;;;4958264;28;20494;-78
2024/01/23 06:23:00;;;;;;;1.23;0.52;;;;;;;;;;4974624;28;20536;-80
2024/01/23 06:25:31;;;;;;;1.25;0.52;;;;;;;;;;4975173;28;20065;-78
2024/01/23 06:28:01;;;;;;;2.25;0.40;;;;;;;;;;4957823;28;20047;-80
2024/01/23 06:30:31;;;;;;;2.38;0.50;;;;;;;;;;4956203;28;20092;-80
2024/01/23 06:33:00;;;;;;;2.58;0.43;;;;;;;;;;4956721;28;20055;-80
2024/01/23 06:35:31;;;;;;;2.28;0.63;;;;;;;;;;4974713;28;20126;-80
2024/01/23 06:38:01;;;;;;;1.02;0.40;;;;;;;;;;4974147;28;20490;-79
2024/01/23 06:40:31;;;;;;;1.55;0.43;;;;;;;;;;4974475;28;20070;-80
2024/01/23 06:43:01;;;;;;;2.08;0.63;;;;;;;;;;4974167;28;20050;-80
2024/01/23 06:45:31;;;;;;;3.65;0.65;;;;;;;;;;4974695;28;20065;-80
2024/01/23 06:48:01;;;;;;;1.52;0.45;;;;;;;;;;4974428;28;20046;-80
2024/01/23 06:50:32;;;;;;;3.03;0.80;;;;;;;;;;4974394;28;20046;-78
2024/01/23 06:53:03;;;;;;;1.83;0.50;;;;;;;;;;4975105;28;20043;-79
2024/01/23 06:55:33;;;;;;;3.53;0.60;;;;;;;;;;4974144;28;20070;-79
2024/01/23 06:58:04;;;;;;;2.08;0.60;;;;;;;;;;4957063;28;20593;-80
2024/01/23 07:00:35;;;;;;;;;;;;;;;;;;4975006;28;20058;-79
2024/01/23 07:03:06;;;;;;;1.83;0.50;;;;;;;;;;4974872;28;19922;-80
2024/01/23 07:05:37;;;;;;;3.17;0.68;;;;;;;;;;4974173;28;20417;-79
2024/01/23 07:08:08;;;;;;;3.25;0.90;;;;;;;;;;4974028;28;20058;-79
2024/01/23 07:10:39;;;;;;;5.35;0.85;;;;;;;;;;4957487;28;20050;-80
2024/01/23 07:13:09;;;;;;;4.53;0.60;;;;;;;;;;4973838;28;20057;-79
2024/01/23 07:15:39;;;;;;;4.00;0.68;;;;;;;;;;4974675;28;20059;-80
2024/01/23 07:18:09;;;;;;;2.67;1.00;;;;;;;;;;4940317;28;20055;-80
2024/01/23 07:20:40;;;;;;;3.53;0.82;;;;;;;;;;4973912;28;20042;-80
2024/01/23 07:23:10;;;;;;;6.53;1.17;;;;;;;;;;4971458;28;20047;-79
2024/01/23 07:25:40;;;;;;;3.00;0.98;;;;;;;;;;4974101;28;20043;-80
2024/01/23 07:28:11;;;;;;;9.90;1.00;;;;;;;;;;4968698;28;20051;-80
2024/01/23 07:30:57;;;;;;;4.38;1.20;;;;;;;;;;4973982;28;20054;-79
2024/01/23 07:33:28;;;;;;;5.35;2.05;;;;;;;;;;4973832;28;20049;-81
2024/01/23 07:35:58;;;;;;;8.88;1.00;;;;;;;;;;4974338;28;20047;-80
2024/01/23 07:38:28;;;;;;;8.00;1.15;;;;;;;;;;4973702;28;20405;-79
2024/01/23 07:40:58;;;;;;;5.18;1.02;;;;;;;;;;4953553;29;20055;-80
2024/01/23 07:43:28;;;;;;;4.35;1.02;;;;;;;;;;4973454;28;20394;-80
2024/01/23 07:45:59;;;;;;;3.00;0.85;;;;;;;;;;4973554;28;20058;-80
2024/01/23 07:48:30;;;;;;;4.68;1.00;;;;;;;;;;4973463;28;20478;-80
2024/01/23 07:51:01;;;;;;;2.72;0.85;;;;;;;;;;4973935;28;20058;-79
2024/01/23 07:53:32;;;;;;;4.15;0.80;;;;;;;;;;4956649;28;20046;-79
2024/01/23 07:56:03;;;;;;;3.20;0.70;;;;;;;;;;4954698;28;20051;-79
2024/01/23 07:58:34;;;;;;;4.72;1.20;;;;;;;;;;4977234;28;20046;-80
2024/01/23 08:01:05;;;;;;;6.90;0.95;;;;;;;;;;4977593;28;20490;-80
2024/01/23 08:03:35;;;;;;;4.80;1.00;;;;;;;;;;4977396;28;20046;-80
2024/01/23 08:06:06;;;;;;;3.83;0.80;;;;;;;;;;4977349;28;20046;-79
2024/01/23 08:08:39;;;;;;;2.47;0.80;;;;;;;;;;4951782;28;20054;-79
2024/01/23 08:11:11;;;;;;;3.90;0.95;;;;;;;;;;4960267;28;20482;-81
2024/01/23 08:13:41;;;;;;;2.40;0.90;;;;;;;;;;4976970;28;20046;-81
2024/01/23 08:16:12;;;;;;;1.67;0.90;;;;;;;;;;4977350;28;20486;-81
2024/01/23 08:18:43;;;;;;;6.53;1.70;;;;;;;;;;4977305;28;20034;-80
2024/01/23 08:21:14;;;;;;;4.80;0.68;;;;;;;;;;4976106;28;20478;-80
2024/01/23 08:23:46;;;;;;;3.08;0.85;;;;;;;;;;4976791;28;20050;-79
2024/01/23 08:26:19;;;;;;;3.63;0.80;;;;;;;;;;4957425;28;20498;-79
2024/01/23 08:28:59;;;;;;;10.07;1.10;;;;;;;;;;4955177;29;20058;-80
2024/01/23 08:31:33;;;;;;;3.80;0.73;;;;;;;;;;4959528;28;20070;-80
2024/01/23 08:34:05;;;;;;;1.25;0.63;;;;;;;;;;4957086;29;20482;-80
2024/01/23 08:36:37;;;;;;;7.35;0.80;;;;;;;;;;4969107;28;20512;-79
2024/01/23 08:39:08;;;;;;;1.88;0.57;;;;;;;;;;4955830;29;20062;-79
2024/01/23 08:41:38;;;;;;;2.08;0.70;;;;;;;;;;4968835;28;20050;-79
2024/01/23 08:44:08;;;;;;;3.03;0.93;;;;;;;;;;4976230;28;20039;-79
2024/01/23 08:46:37;;;;;;;3.95;0.90;;;;;;;;;;4976087;28;20450;-79
2024/01/23 08:49:08;;;;;;;2.20;0.90;;;;;;;;;;4976389;28;20401;-79
2024/01/23 08:51:38;;;;;;;3.35;1.23;;;;;;;;;;4976503;28;20417;-80
2024/01/23 08:54:08;;;;;;;1.98;0.98;;;;;;;;;;4957439;28;20062;-79
2024/01/23 08:56:38;;;;;;;5.10;1.00;;;;;;;;;;4975869;28;20506;-81
2024/01/23 08:59:08;;;;;;;3.38;1.20;;;;;;;;;;4976105;28;20474;-80
2024/01/23 09:01:42;;;;;;;4.28;1.08;;;;;;;;;;4955904;29;20047;-79
2024/01/23 09:04:12;;;;;;;5.65;1.30;;;;;;;;;;4973564;28;20382;-79
2024/01/23 09:06:42;;;;;;;6.25;0.80;;;;;;;;;;4975935;28;20054;-79
2024/01/23 09:09:13;;;;;;;3.38;1.00;;;;;;;;;;4976527;28;20066;-79
2024/01/23 09:11:45;;;;;;;3.38;1.00;;;;;;;;;;4976222;28;20053;-81
2024/01/23 09:14:16;;;;;;;2.47;0.88;;;;;;;;;;4975896;28;20057;-78
2024/01/23 09:16:47;;;;;;;4.13;1.00;;;;;;;;;;4975842;28;20393;-81
2024/01/23 09:19:17;;;;;;;2.80;1.02;;;;;;;;;;4944771;28;20048;-79
2024/01/23 09:21:50;;;;;;;5.53;1.08;;;;;;;;;;4939177;28;20383;-79
2024/01/23 09:24:24;;;;;;;14.45;1.15;;;;;;;;;;4973434;28;20042;-79
2024/01/23 09:26:59;;;;;;;1.90;0.93;;;;;;;;;;4973114;28;20049;-79
2024/01/23 09:29:33;;;;;;;15.60;3.13;;;;;;;;;;4956323;28;20047;-79
2024/01/23 09:32:05;;;;;;;2.35;0.65;;;;;;;;;;4955368;28;20047;-79
2024/01/23 09:34:37;;;;;;;3.17;0.90;;;;;;;;;;4955870;28;20054;-78
2024/01/23 09:37:07;;;;;;;;;;;;;;;;;;4973912;28;20042;-79
2024/01/23 09:39:38;;;;;;;3.92;0.98;;;;;;;;;;4973089;28;19922;-79
2024/01/23 09:42:15;;;;;;;4.97;1.10;;;;;;;;;;4972894;28;20046;-80
2024/01/23 09:44:46;;;;;;;1.58;0.65;;;;;;;;;;4973034;28;20051;-79
2024/01/23 09:47:27;;;;;;;6.35;1.20;;;;;;;;;;4959711;28;20050;-78
2024/01/23 09:49:59;;;;;;;2.50;1.00;;;;;;;;;;4971978;28;20055;-77
2024/01/23 09:52:35;;;;;;;2.40;1.08;;;;;;;;;;4973424;28;20051;-78
2024/01/23 09:55:06;;;;;;;4.75;1.10;;;;;;;;;;4972874;28;20059;-78
2024/01/23 09:57:39;;;;;;;5.03;1.05;;;;;;;;;;4973726;28;20049;-78
2024/01/23 10:00:13;;;;;;;3.80;1.00;;;;;;;;;;4970941;28;20061;-79
2024/01/23 10:02:45;;;;;;;5.18;0.80;;;;;;;;;;4971964;28;20043;-80
2024/01/23 10:05:16;;;;;;;6.15;1.20;;;;;;;;;;4972402;28;20054;-79
2024/01/23 10:07:47;;;;;;;1.85;0.80;;;;;;;;;;4973009;28;20050;-79
2024/01/23 10:10:18;;;;;;;2.90;1.15;;;;;;;;;;4972529;28;20055;-80
2024/01/23 10:12:49;;;;;;;3.25;0.80;;;;;;;;;;4973281;28;20041;-80
2024/01/23 10:15:23;;;;;;;3.53;1.00;;;;;;;;;;4954629;28;20405;-79
2024/01/23 10:17:53;;;;;;;2.72;1.80;;;;;;;;;;4972698;28;20047;-79
2024/01/23 10:20:24;;;;;;;9.48;1.63;;;;;;;;;;4972083;28;20050;-80
2024/01/23 10:22:58;;;;;;;3.60;0.90;;;;;;;;;;4972737;28;20406;-80
2024/01/23 10:25:31;;;;;;;8.00;1.88;;;;;;;;;;4955391;28;20059;-80
2024/01/23 10:28:01;;;;;;;7.05;1.38;;;;;;;;;;4973072;28;20074;-80
2024/01/23 10:30:32;;;;;;;4.05;1.00;;;;;;;;;;4972200;28;20055;-80
2024/01/23 10:33:06;;;;;;;4.10;1.50;;;;;;;;;;4938306;28;20510;-81
2024/01/23 10:35:44;;;;;;;1.45;0.68;;;;;;;;;;4952608;28;20047;-79
2024/01/23 10:38:16;;;;;;;6.10;1.15;;;;;;;;;;4952616;28;20050;-81
2024/01/23 10:40:47;;;;;;;6.30;0.90;;;;;;;;;;4963007;28;20047;-79
2024/01/23 10:43:19;;;;;;;4.43;1.00;;;;;;;;;;4955615;28;20043;-81
2024/01/23 10:45:53;;;;;;;2.45;0.90;;;;;;;;;;4935669;28;20050;-79
2024/01/23 10:48:24;;;;;;;3.10;0.90;;;;;;;;;;4978154;28;20054;-78
2024/01/23 10:51:08;;;;;;;1.90;0.90;;;;;;;;;;4972063;28;20055;-79
2024/01/23 10:53:47;;;;;;;3.63;0.80;;;;;;;;;;4942395;28;20047;-79
2024/01/23 10:56:20;;;;;;;2.53;1.08;;;;;;;;;;4954661;28;20387;-79
2024/01/23 10:58:54;;;;;;;;;;;;;;;;;;4950353;28;20074;-80
2024/01/23 11:01:25;;;;;;;2.78;0.80;;;;;;;;;;4972198;28;19922;-79
2024/01/23 11:03:56;;;;;;;2.20;0.77;;;;;;;;;;4954466;28;20074;-80
2024/01/23 11:06:31;;;;;;;2.20;1.00;;;;;;;;;;4972489;28;20047;-79
2024/01/23 11:09:16;;;;;;;5.40;1.13;;;;;;;;;;4960941;28;20409;-80
2024/01/23 11:12:05;;;;;;;3.85;0.80;;;;;;;;;;4971951;28;20050;-79
2024/01/23 11:15:00;;;;;;;2.08;0.57;;;;;;;;;;4972489;28;20050;-79
2024/01/23 11:17:35;;;;;;;5.00;0.70;;;;;;;;;;4972285;28;20501;-79
2024/01/23 11:20:10;;;;;;;3.97;1.05;;;;;;;;;;4972177;28;20050;-80
2024/01/23 11:22:40;;;;;;;2.55;0.80;;;;;;;;;;4971636;28;20065;-79
2024/01/23 11:25:11;;;;;;;2.30;0.80;;;;;;;;;;4955249;28;20046;-78
2024/01/23 11:27:42;;;;;;;2.40;1.10;;;;;;;;;;4971823;28;20055;-79
2024/01/23 11:30:13;;;;;;;1.58;0.60;;;;;;;;;;4972291;28;20075;-80
2024/01/23 11:32:47;;;;;;;2.53;0.68;;;;;;;;;;4975659;28;20117;-78
2024/01/23 11:35:19;;;;;;;4.50;1.15;;;;;;;;;;4961498;28;20046;-86
2024/01/23 11:37:53;;;;;;;4.22;0.73;;;;;;;;;;4959404;28;20047;-86
2024/01/23 11:40:35;;;;;;;4.70;1.00;;;;;;;;;;4959394;28;21573;-86
2024/01/23 11:43:07;;;;;;;2.67;0.77;;;;;;;;;;4942356;28;20395;-86
2024/01/23 11:45:42;;;;;;;4.82;0.95;;;;;;;;;;4957650;28;20051;-91
2024/01/23 11:48:47;;;;;;;4.30;0.82;;;;;;;;;;4973182;28;20054;-86
2024/01/23 11:51:19;;;;;;;1.15;0.47;;;;;;;;;;4958231;28;20063;-87
2024/01/23 11:54:00;;;;;;;1.42;0.40;;;;;;;;;;4957446;28;20051;-87
2024/01/23 11:56:33;;;;;;;3.80;0.50;;;;;;;;;;4958206;28;20051;-90
2024/01/23 11:59:06;;;;;;;5.75;0.75;;;;;;;;;;4958112;28;20046;-87
2024/01/23 12:05:53;;;;;;;2.80;0.52;;;;;;;;;;4978827;28;20046;-87
2024/01/23 12:08:25;;;;;;;5.80;0.70;;;;;;;;;;4942825;28;20512;-88
2024/01/23 12:10:57;;;;;;;5.13;0.85;;;;;;;;;;4940484;28;20054;-86
2024/01/23 12:13:31;;;;;;;1.80;0.68;;;;;;;;;;4957715;28;20854;-86
2024/01/23 12:16:09;;;;;;;1.55;0.52;;;;;;;;;;4957488;28;20090;-91
2024/01/23 12:18:40;;;;;;;3.25;0.47;;;;;;;;;;4941812;28;20524;-89
2024/01/23 12:21:11;;;;;;;1.67;0.60;;;;;;;;;;4957955;28;20059;-87
2024/01/23 12:23:42;;;;;;;2.58;0.60;;;;;;;;;;4956245;28;20485;-88
2024/01/23 12:26:14;;;;;;;1.70;0.63;;;;;;;;;;4940068;28;20054;-89
2024/01/23 12:28:46;;;;;;;2.35;0.52;;;;;;;;;;4956086;28;20065;-86
2024/01/23 12:31:19;;;;;;;2.25;0.50;;;;;;;;;;4961736;28;20047;-86
2024/01/23 12:33:51;;;;;;;1.95;0.50;;;;;;;;;;4957364;28;20051;-86
2024/01/23 12:36:28;;;;;;;1.33;0.43;;;;;;;;;;4958830;28;20498;-89
2024/01/23 12:39:00;;;;;;;3.80;0.40;;;;;;;;;;4962070;28;20047;-84
2024/01/23 12:41:37;;;;;;;2.45;0.63;;;;;;;;;;4961947;28;20051;-84
2024/01/23 12:44:07;;;;;;;2.10;0.60;;;;;;;;;;4974788;28;20047;-84
2024/01/23 12:46:38;;;;;;;1.38;0.70;;;;;;;;;;4975077;28;20059;-85
2024/01/23 12:49:10;;;;;;;1.30;0.52;;;;;;;;;;4953453;28;20530;-83
2024/01/23 12:51:48;;;;;;;1.55;0.70;;;;;;;;;;4958365;28;20051;-83
2024/01/23 12:54:18;;;;;;;4.95;0.60;;;;;;;;;;4957268;29;20066;-83
2024/01/23 12:56:50;;;;;;;4.70;0.80;;;;;;;;;;4955857;29;20047;-84
2024/01/23 12:59:21;;;;;;;1.60;0.63;;;;;;;;;;4940587;29;20039;-84
2024/01/23 13:01:51;;;;;;;1.67;0.60;;;;;;;;;;4956953;29;20051;-84
2024/01/23 13:04:21;;;;;;;2.17;0.43;;;;;;;;;;4945871;29;20055;-81
2024/01/23 13:06:52;;;;;;;3.22;0.55;;;;;;;;;;4946603;29;20062;-84
2024/01/23 13:09:23;;;;;;;5.90;0.52;;;;;;;;;;4938190;29;20514;-83
2024/01/23 13:11:54;;;;;;;1.77;0.55;;;;;;;;;;4937761;29;20063;-82
2024/01/23 13:14:25;;;;;;;3.15;0.90;;;;;;;;;;4957199;29;20058;-81
2024/01/23 13:16:55;;;;;;;2.70;0.40;;;;;;;;;;4955000;29;20054;-82
2024/01/23 13:19:26;;;;;;;3.08;0.50;;;;;;;;;;4975197;29;20062;-83
2024/01/23 13:21:57;;;;;;;2.38;0.60;;;;;;;;;;4958314;29;20052;-83
2024/01/23 13:24:28;;;;;;;2.08;0.40;;;;;;;;;;4959809;29;20383;-83
2024/01/23 13:27:06;;;;;;;0.90;0.40;;;;;;;;;;4938461;29;20414;-83
2024/01/23 13:29:37;;;;;;;1.20;0.60;;;;;;;;;;4953651;29;20407;-84
2024/01/23 13:32:08;;;;;;;2.25;0.50;;;;;;;;;;4955987;29;20043;-84
2024/01/23 13:34:38;;;;;;;4.13;0.50;;;;;;;;;;4938277;29;20062;-83
2024/01/23 13:37:09;;;;;;;3.42;0.35;;;;;;;;;;4954553;29;20499;-84
2024/01/23 13:39:39;;;;;;;1.60;0.55;;;;;;;;;;4939350;29;20050;-86
2024/01/23 13:42:09;;;;;;;1.38;0.50;;;;;;;;;;4954219;29;20062;-84
2024/01/23 13:44:40;;;;;;;2.17;0.40;;;;;;;;;;4954477;29;20047;-85
2024/01/23 13:47:10;;;;;;;1.98;0.50;;;;;;;;;;4938192;29;20051;-83
2024/01/23 13:49:55;;;;;;;2.92;0.55;;;;;;;;;;4953585;29;20418;-85
2024/01/23 13:52:26;;;;;;;0.95;0.45;;;;;;;;;;4937791;29;20062;-84
2024/01/23 13:54:58;;;;;;;1.80;0.50;;;;;;;;;;4952928;29;20043;-83
2024/01/23 13:57:32;;;;;;;1.95;0.60;;;;;;;;;;4953907;29;20055;-85
2024/01/23 14:00:05;;;;;;;1.08;0.52;;;;;;;;;;4937886;29;20446;-86
2024/01/23 14:02:41;;;;;;;1.17;0.30;;;;;;;;;;4956475;28;20051;-88
2024/01/23 14:05:13;;;;;;;1.20;0.40;;;;;;;;;;4937725;29;20058;-87
2024/01/23 14:07:44;;;;;;;5.28;0.52;;;;;;;;;;4951913;28;20055;-86
2024/01/23 14:10:16;;;;;;;1.17;0.50;;;;;;;;;;4935599;29;20055;-85
2024/01/23 14:12:50;;;;;;;2.63;0.82;;;;;;;;;;4935787;29;20070;-83
2024/01/23 14:15:21;;;;;;;2.60;0.52;;;;;;;;;;4918824;29;20055;-86
2024/01/23 14:17:51;;;;;;;3.00;0.63;;;;;;;;;;4937472;28;20066;-85
2024/01/23 14:20:23;;;;;;;2.03;0.40;;;;;;;;;;4954277;28;20066;-85
2024/01/23 14:22:54;;;;;;;3.17;0.70;;;;;;;;;;4975103;28;20046;-86
2024/01/23 14:25:25;;;;;;;1.38;0.57;;;;;;;;;;4972095;28;20046;-88
2024/01/23 14:28:19;;;;;;;3.55;0.70;;;;;;;;;;4973190;28;20034;-86
2024/01/23 14:30:51;;;;;;;1.40;0.80;;;;;;;;;;4970663;28;20449;-84
2024/01/23 14:33:29;;;;;;;5.75;0.57;;;;;;;;;;4942284;28;20051;-86
2024/01/23 14:36:02;;;;;;;1.35;0.40;;;;;;;;;;4952428;28;20047;-87
2024/01/23 14:38:32;;;;;;;1.25;0.30;;;;;;;;;;4955079;28;20057;-89
2024/01/23 14:41:07;;;;;;;8.27;2.58;;;;;;;;;;4953005;28;20059;-86
2024/01/23 14:43:37;;;;;;;1.13;0.30;;;;;;;;;;4972401;28;20043;-83
2024/01/23 14:46:08;;;;;;;4.30;0.65;;;;;;;;;;4958547;28;20043;-86
2024/01/23 14:48:48;;;;;;;0.70;0.40;;;;;;;;;;4976281;28;20039;-86
2024/01/23 14:51:24;;;;;;;3.25;0.70;;;;;;;;;;4943136;28;20051;-88
2024/01/23 14:53:55;;;;;;;2.50;0.60;;;;;;;;;;4939569;28;20059;-87
2024/01/23 14:56:26;;;;;;;2.40;0.90;;;;;;;;;;4939844;28;20057;-89
2024/01/23 14:58:56;;;;;;;2.70;0.63;;;;;;;;;;4950190;29;20051;-89
2024/01/23 15:01:27;;;;;;;2.67;1.13;;;;;;;;;;4941242;29;20062;-86
2024/01/23 15:03:58;;;;;;;0.98;0.35;;;;;;;;;;4953827;29;20047;-86
2024/01/23 15:06:29;;;;;;;5.80;1.50;;;;;;;;;;4955962;29;20058;-86
2024/01/23 15:08:59;;;;;;;17.05;8.27;;;;;;;;;;4956653;29;20078;-86
2024/01/23 15:11:31;;;;;;;7.75;3.75;;;;;;;;;;4955767;29;20414;-85
2024/01/23 15:14:03;;;;;;;31.73;16.73;;;;;;;;;;4940220;29;20052;-87
2024/01/23 15:16:33;;;;;;;0.93;0.40;;;;;;;;;;4940417;29;20386;-88